sensor_id;sensor_type;location;lat;lon;timestamp;P1;durP1;ratioP1;P2;durP2;ratioP2
21810;SDS011;11067;48.788;9.208;2022-08-19T00:01:25;12.20;;;9.73;;
21810;SDS011;11067;48.788;9.208;2022-08-19T00:03:52;14.60;;;10.63;;
21810;SDS011;11067;48.788;9.208;2022-08-19T00:06:17;14.40;;;10.47;;
21810;SDS011;11067;48.788;9.208;2022-08-19T00:08:43;14.07;;;10.30;;
21810;SDS011;11067;48.788;9.208;2022-08-19T00:11:10;15.27;;;10.70;;
21810;SDS011;11067;48.788;9.208;2022-08-19T00:13:35;14.88;;;10.95;;
21810;SDS011;11067;48.788;9.208;2022-08-19T00:16:04;13.20;;;10.18;;
21810;SDS011;11067;48.788;9.208;2022-08-19T00:18:31;14.23;;;10.38;;
21810;SDS011;11067;48.788;9.208;2022-08-19T00:20:57;12.00;;;9.80;;
21810;SDS011;11067;48.788;9.208;2022-08-19T00:23:24;14.00;;;10.48;;
21810;SDS011;11067;48.788;9.208;2022-08-19T00:25:50;13.77;;;10.20;;
21810;SDS011;11067;48.788;9.208;2022-08-19T00:28:15;13.60;;;10.60;;
21810;SDS011;11067;48.788;9.208;2022-08-19T00:30:41;13.88;;;10.63;;
21810;SDS011;11067;48.788;9.208;2022-08-19T00:33:06;13.40;;;10.50;;
21810;SDS011;11067;48.788;9.208;2022-08-19T00:35:33;15.38;;;10.65;;
21810;SDS011;11067;48.788;9.208;2022-08-19T00:37:58;12.93;;;9.40;;
21810;SDS011;11067;48.788;9.208;2022-08-19T00:40:24;16.27;;;10.50;;
21810;SDS011;11067;48.788;9.208;2022-08-19T00:42:50;13.90;;;10.77;;
21810;SDS011;11067;48.788;9.208;2022-08-19T00:45:23;15.63;;;10.52;;
21810;SDS011;11067;48.788;9.208;2022-08-19T00:47:51;15.60;;;11.13;;
21810;SDS011;11067;48.788;9.208;2022-08-19T00:50:17;12.73;;;10.53;;
21810;SDS011;11067;48.788;9.208;2022-08-19T00:52:46;17.00;;;10.48;;
21810;SDS011;11067;48.788;9.208;2022-08-19T00:55:18;14.90;;;10.70;;
21810;SDS011;11067;48.788;9.208;2022-08-19T00:57:48;14.97;;;9.93;;
21810;SDS011;11067;48.788;9.208;2022-08-19T01:00:19;13.80;;;10.00;;
21810;SDS011;11067;48.788;9.208;2022-08-19T01:02:46;15.17;;;10.43;;
21810;SDS011;11067;48.788;9.208;2022-08-19T01:05:14;15.00;;;10.60;;
21810;SDS011;11067;48.788;9.208;2022-08-19T01:07:43;15.52;;;10.50;;
21810;SDS011;11067;48.788;9.208;2022-08-19T01:10:13;16.38;;;10.68;;
21810;SDS011;11067;48.788;9.208;2022-08-19T01:12:41;14.65;;;10.55;;
21810;SDS011;11067;48.788;9.208;2022-08-19T01:15:08;16.10;;;9.60;;
21810;SDS011;11067;48.788;9.208;2022-08-19T01:17:36;15.65;;;11.05;;
21810;SDS011;11067;48.788;9.208;2022-08-19T01:20:05;15.10;;;10.93;;
21810;SDS011;11067;48.788;9.208;2022-08-19T01:22:43;13.33;;;10.37;;
21810;SDS011;11067;48.788;9.208;2022-08-19T01:25:12;14.88;;;11.00;;
21810;SDS011;11067;48.788;9.208;2022-08-19T01:27:44;15.45;;;10.55;;
21810;SDS011;11067;48.788;9.208;2022-08-19T01:30:13;14.73;;;10.50;;
21810;SDS011;11067;48.788;9.208;2022-08-19T01:32:48;16.15;;;11.55;;
21810;SDS011;11067;48.788;9.208;2022-08-19T01:35:14;17.50;;;11.20;;
21810;SDS011;11067;48.788;9.208;2022-08-19T01:37:47;13.37;;;10.33;;
21810;SDS011;11067;48.788;9.208;2022-08-19T01:40:15;17.10;;;10.85;;
21810;SDS011;11067;48.788;9.208;2022-08-19T01:42:41;15.15;;;11.68;;
21810;SDS011;11067;48.788;9.208;2022-08-19T01:45:07;17.30;;;11.15;;
21810;SDS011;11067;48.788;9.208;2022-08-19T01:47:34;15.68;;;11.35;;
21810;SDS011;11067;48.788;9.208;2022-08-19T01:50:01;16.27;;;11.13;;
21810;SDS011;11067;48.788;9.208;2022-08-19T01:52:26;14.33;;;10.83;;
21810;SDS011;11067;48.788;9.208;2022-08-19T01:54:52;16.98;;;11.25;;
21810;SDS011;11067;48.788;9.208;2022-08-19T01:57:18;16.85;;;11.95;;
21810;SDS011;11067;48.788;9.208;2022-08-19T01:59:44;16.27;;;11.13;;
21810;SDS011;11067;48.788;9.208;2022-08-19T02:02:10;18.83;;;11.60;;
21810;SDS011;11067;48.788;9.208;2022-08-19T02:04:36;16.70;;;11.68;;
21810;SDS011;11067;48.788;9.208;2022-08-19T02:07:06;16.50;;;12.00;;
21810;SDS011;11067;48.788;9.208;2022-08-19T02:09:32;18.88;;;12.25;;
21810;SDS011;11067;48.788;9.208;2022-08-19T02:11:58;17.17;;;11.75;;
21810;SDS011;11067;48.788;9.208;2022-08-19T02:14:24;17.83;;;12.07;;
21810;SDS011;11067;48.788;9.208;2022-08-19T02:16:50;16.75;;;11.93;;
21810;SDS011;11067;48.788;9.208;2022-08-19T02:19:16;17.00;;;12.33;;
21810;SDS011;11067;48.788;9.208;2022-08-19T02:21:41;17.57;;;12.47;;
21810;SDS011;11067;48.788;9.208;2022-08-19T02:24:08;16.25;;;11.27;;
21810;SDS011;11067;48.788;9.208;2022-08-19T02:26:34;17.58;;;12.02;;
21810;SDS011;11067;48.788;9.208;2022-08-19T02:29:00;17.07;;;12.73;;
21810;SDS011;11067;48.788;9.208;2022-08-19T02:31:25;17.53;;;12.70;;
21810;SDS011;11067;48.788;9.208;2022-08-19T02:33:52;16.95;;;12.40;;
21810;SDS011;11067;48.788;9.208;2022-08-19T02:36:20;18.88;;;12.40;;
21810;SDS011;11067;48.788;9.208;2022-08-19T02:38:46;18.93;;;13.00;;
21810;SDS011;11067;48.788;9.208;2022-08-19T02:41:14;16.92;;;12.38;;
21810;SDS011;11067;48.788;9.208;2022-08-19T02:43:44;20.02;;;13.23;;
21810;SDS011;11067;48.788;9.208;2022-08-19T02:46:14;20.05;;;13.57;;
21810;SDS011;11067;48.788;9.208;2022-08-19T02:48:45;20.17;;;13.85;;
21810;SDS011;11067;48.788;9.208;2022-08-19T02:51:19;21.33;;;13.70;;
21810;SDS011;11067;48.788;9.208;2022-08-19T02:53:47;19.73;;;13.30;;
21810;SDS011;11067;48.788;9.208;2022-08-19T02:56:13;22.83;;;12.80;;
21810;SDS011;11067;48.788;9.208;2022-08-19T02:58:39;21.35;;;13.80;;
21810;SDS011;11067;48.788;9.208;2022-08-19T03:01:05;20.73;;;13.95;;
21810;SDS011;11067;48.788;9.208;2022-08-19T03:03:31;19.90;;;13.05;;
21810;SDS011;11067;48.788;9.208;2022-08-19T03:06:11;21.52;;;14.50;;
21810;SDS011;11067;48.788;9.208;2022-08-19T03:08:43;21.58;;;14.50;;
21810;SDS011;11067;48.788;9.208;2022-08-19T03:11:14;19.45;;;13.48;;
21810;SDS011;11067;48.788;9.208;2022-08-19T03:13:44;24.30;;;14.85;;
21810;SDS011;11067;48.788;9.208;2022-08-19T03:16:10;21.05;;;13.85;;
21810;SDS011;11067;48.788;9.208;2022-08-19T03:18:37;23.10;;;14.90;;
21810;SDS011;11067;48.788;9.208;2022-08-19T03:21:03;22.55;;;15.50;;
21810;SDS011;11067;48.788;9.208;2022-08-19T03:23:29;19.60;;;13.65;;
21810;SDS011;11067;48.788;9.208;2022-08-19T03:25:54;22.13;;;14.97;;
21810;SDS011;11067;48.788;9.208;2022-08-19T03:28:20;22.08;;;15.23;;
21810;SDS011;11067;48.788;9.208;2022-08-19T03:30:56;21.33;;;15.20;;
21810;SDS011;11067;48.788;9.208;2022-08-19T03:33:23;24.92;;;16.50;;
21810;SDS011;11067;48.788;9.208;2022-08-19T03:36:07;24.10;;;16.10;;
21810;SDS011;11067;48.788;9.208;2022-08-19T03:38:36;23.38;;;15.85;;
21810;SDS011;11067;48.788;9.208;2022-08-19T03:41:07;22.33;;;16.05;;
21810;SDS011;11067;48.788;9.208;2022-08-19T03:43:35;23.90;;;16.05;;
21810;SDS011;11067;48.788;9.208;2022-08-19T03:46:09;25.63;;;15.73;;
21810;SDS011;11067;48.788;9.208;2022-08-19T03:48:37;21.85;;;15.32;;
21810;SDS011;11067;48.788;9.208;2022-08-19T03:51:04;23.50;;;15.73;;
21810;SDS011;11067;48.788;9.208;2022-08-19T03:53:31;23.13;;;16.20;;
21810;SDS011;11067;48.788;9.208;2022-08-19T03:55:59;22.30;;;15.38;;
21810;SDS011;11067;48.788;9.208;2022-08-19T03:58:25;23.98;;;15.63;;
21810;SDS011;11067;48.788;9.208;2022-08-19T04:00:53;21.25;;;15.85;;
21810;SDS011;11067;48.788;9.208;2022-08-19T04:03:23;24.92;;;15.95;;
21810;SDS011;11067;48.788;9.208;2022-08-19T04:05:49;22.97;;;16.50;;
21810;SDS011;11067;48.788;9.208;2022-08-19T04:08:15;24.73;;;16.60;;
21810;SDS011;11067;48.788;9.208;2022-08-19T04:10:45;26.35;;;15.80;;
21810;SDS011;11067;48.788;9.208;2022-08-19T04:13:14;24.20;;;17.15;;
21810;SDS011;11067;48.788;9.208;2022-08-19T04:15:41;26.25;;;17.80;;
21810;SDS011;11067;48.788;9.208;2022-08-19T04:18:10;28.10;;;17.75;;
21810;SDS011;11067;48.788;9.208;2022-08-19T04:20:43;23.87;;;17.23;;
21810;SDS011;11067;48.788;9.208;2022-08-19T04:23:11;23.95;;;16.27;;
21810;SDS011;11067;48.788;9.208;2022-08-19T04:25:38;25.87;;;17.27;;
21810;SDS011;11067;48.788;9.208;2022-08-19T04:28:06;24.25;;;15.95;;
21810;SDS011;11067;48.788;9.208;2022-08-19T04:30:42;25.95;;;17.80;;
21810;SDS011;11067;48.788;9.208;2022-08-19T04:33:11;25.98;;;16.73;;
21810;SDS011;11067;48.788;9.208;2022-08-19T04:35:39;26.33;;;17.15;;
21810;SDS011;11067;48.788;9.208;2022-08-19T04:38:13;24.90;;;16.97;;
21810;SDS011;11067;48.788;9.208;2022-08-19T04:40:44;25.98;;;16.80;;
21810;SDS011;11067;48.788;9.208;2022-08-19T04:43:33;26.63;;;17.65;;
21810;SDS011;11067;48.788;9.208;2022-08-19T04:46:07;25.70;;;17.08;;
21810;SDS011;11067;48.788;9.208;2022-08-19T04:48:34;24.77;;;17.17;;
21810;SDS011;11067;48.788;9.208;2022-08-19T04:51:00;23.73;;;17.13;;
21810;SDS011;11067;48.788;9.208;2022-08-19T04:53:27;22.40;;;15.93;;
21810;SDS011;11067;48.788;9.208;2022-08-19T04:55:54;26.53;;;16.97;;
21810;SDS011;11067;48.788;9.208;2022-08-19T04:58:21;22.85;;;16.45;;
21810;SDS011;11067;48.788;9.208;2022-08-19T05:00:47;23.95;;;16.98;;
21810;SDS011;11067;48.788;9.208;2022-08-19T05:03:12;25.23;;;16.57;;
21810;SDS011;11067;48.788;9.208;2022-08-19T05:05:40;23.93;;;15.67;;
21810;SDS011;11067;48.788;9.208;2022-08-19T05:08:06;25.15;;;16.70;;
21810;SDS011;11067;48.788;9.208;2022-08-19T05:10:34;26.67;;;17.58;;
21810;SDS011;11067;48.788;9.208;2022-08-19T05:13:01;24.45;;;16.13;;
21810;SDS011;11067;48.788;9.208;2022-08-19T05:15:27;24.00;;;16.85;;
21810;SDS011;11067;48.788;9.208;2022-08-19T05:17:52;23.43;;;15.90;;
21810;SDS011;11067;48.788;9.208;2022-08-19T05:20:39;24.00;;;16.47;;
21810;SDS011;11067;48.788;9.208;2022-08-19T05:23:24;24.92;;;17.33;;
21810;SDS011;11067;48.788;9.208;2022-08-19T05:25:50;23.80;;;17.67;;
21810;SDS011;11067;48.788;9.208;2022-08-19T05:28:17;26.10;;;17.75;;
21810;SDS011;11067;48.788;9.208;2022-08-19T05:30:43;23.88;;;16.85;;
21810;SDS011;11067;48.788;9.208;2022-08-19T05:33:09;25.38;;;16.67;;
21810;SDS011;11067;48.788;9.208;2022-08-19T05:35:37;27.98;;;17.10;;
21810;SDS011;11067;48.788;9.208;2022-08-19T05:38:04;23.30;;;17.48;;
21810;SDS011;11067;48.788;9.208;2022-08-19T05:40:31;21.67;;;16.65;;
21810;SDS011;11067;48.788;9.208;2022-08-19T05:43:02;23.20;;;17.03;;
21810;SDS011;11067;48.788;9.208;2022-08-19T05:45:29;24.15;;;16.65;;
21810;SDS011;11067;48.788;9.208;2022-08-19T05:47:54;23.55;;;16.15;;
21810;SDS011;11067;48.788;9.208;2022-08-19T05:50:20;22.97;;;16.70;;
21810;SDS011;11067;48.788;9.208;2022-08-19T05:52:46;22.42;;;16.13;;
21810;SDS011;11067;48.788;9.208;2022-08-19T05:55:11;23.63;;;17.37;;
21810;SDS011;11067;48.788;9.208;2022-08-19T05:57:37;23.75;;;16.00;;
21810;SDS011;11067;48.788;9.208;2022-08-19T06:00:04;25.65;;;18.00;;
21810;SDS011;11067;48.788;9.208;2022-08-19T06:02:34;25.30;;;16.67;;
21810;SDS011;11067;48.788;9.208;2022-08-19T06:05:00;24.42;;;17.02;;
21810;SDS011;11067;48.788;9.208;2022-08-19T06:07:27;25.70;;;17.45;;
21810;SDS011;11067;48.788;9.208;2022-08-19T06:09:53;23.70;;;16.40;;
21810;SDS011;11067;48.788;9.208;2022-08-19T06:12:20;25.92;;;17.58;;
21810;SDS011;11067;48.788;9.208;2022-08-19T06:14:55;24.05;;;16.48;;
21810;SDS011;11067;48.788;9.208;2022-08-19T06:17:21;23.67;;;16.53;;
21810;SDS011;11067;48.788;9.208;2022-08-19T06:19:49;22.00;;;15.90;;
21810;SDS011;11067;48.788;9.208;2022-08-19T06:22:15;23.77;;;16.63;;
21810;SDS011;11067;48.788;9.208;2022-08-19T06:24:41;24.52;;;16.40;;
21810;SDS011;11067;48.788;9.208;2022-08-19T06:27:06;24.90;;;16.30;;
21810;SDS011;11067;48.788;9.208;2022-08-19T06:29:32;20.63;;;15.50;;
21810;SDS011;11067;48.788;9.208;2022-08-19T06:31:59;23.93;;;16.30;;
21810;SDS011;11067;48.788;9.208;2022-08-19T06:34:28;25.23;;;16.95;;
21810;SDS011;11067;48.788;9.208;2022-08-19T06:36:56;22.63;;;16.10;;
21810;SDS011;11067;48.788;9.208;2022-08-19T06:39:27;28.50;;;18.55;;
21810;SDS011;11067;48.788;9.208;2022-08-19T06:41:56;29.27;;;19.30;;
21810;SDS011;11067;48.788;9.208;2022-08-19T06:44:25;26.63;;;18.13;;
21810;SDS011;11067;48.788;9.208;2022-08-19T06:46:53;27.48;;;17.50;;
21810;SDS011;11067;48.788;9.208;2022-08-19T06:49:20;27.30;;;18.30;;
21810;SDS011;11067;48.788;9.208;2022-08-19T06:51:46;27.70;;;18.57;;
21810;SDS011;11067;48.788;9.208;2022-08-19T06:54:13;25.50;;;17.70;;
21810;SDS011;11067;48.788;9.208;2022-08-19T06:56:41;25.77;;;18.30;;
21810;SDS011;11067;48.788;9.208;2022-08-19T06:59:09;27.00;;;18.80;;
21810;SDS011;11067;48.788;9.208;2022-08-19T07:01:37;26.85;;;17.83;;
21810;SDS011;11067;48.788;9.208;2022-08-19T07:04:06;31.60;;;19.58;;
21810;SDS011;11067;48.788;9.208;2022-08-19T07:06:33;24.10;;;17.30;;
21810;SDS011;11067;48.788;9.208;2022-08-19T07:09:00;24.83;;;18.02;;
21810;SDS011;11067;48.788;9.208;2022-08-19T07:11:26;27.85;;;17.02;;
21810;SDS011;11067;48.788;9.208;2022-08-19T07:13:52;24.52;;;17.63;;
21810;SDS011;11067;48.788;9.208;2022-08-19T07:16:18;24.85;;;17.63;;
21810;SDS011;11067;48.788;9.208;2022-08-19T07:18:45;24.40;;;17.03;;
21810;SDS011;11067;48.788;9.208;2022-08-19T07:21:16;25.63;;;18.27;;
21810;SDS011;11067;48.788;9.208;2022-08-19T07:23:44;27.02;;;17.75;;
21810;SDS011;11067;48.788;9.208;2022-08-19T07:28:47;25.45;;;17.50;;
21810;SDS011;11067;48.788;9.208;2022-08-19T07:31:14;22.30;;;15.68;;
21810;SDS011;11067;48.788;9.208;2022-08-19T07:33:48;22.13;;;15.95;;
21810;SDS011;11067;48.788;9.208;2022-08-19T07:36:15;26.45;;;17.25;;
21810;SDS011;11067;48.788;9.208;2022-08-19T07:38:46;23.23;;;15.97;;
21810;SDS011;11067;48.788;9.208;2022-08-19T07:41:15;24.27;;;16.10;;
21810;SDS011;11067;48.788;9.208;2022-08-19T07:43:42;23.13;;;16.40;;
21810;SDS011;11067;48.788;9.208;2022-08-19T07:46:09;25.80;;;16.50;;
21810;SDS011;11067;48.788;9.208;2022-08-19T07:48:35;22.08;;;15.32;;
21810;SDS011;11067;48.788;9.208;2022-08-19T07:51:02;21.70;;;15.18;;
21810;SDS011;11067;48.788;9.208;2022-08-19T07:53:30;23.90;;;16.30;;
21810;SDS011;11067;48.788;9.208;2022-08-19T07:55:58;24.38;;;15.88;;
21810;SDS011;11067;48.788;9.208;2022-08-19T07:58:27;22.35;;;16.08;;
21810;SDS011;11067;48.788;9.208;2022-08-19T08:00:53;23.07;;;15.67;;
21810;SDS011;11067;48.788;9.208;2022-08-19T08:03:19;20.13;;;14.77;;
21810;SDS011;11067;48.788;9.208;2022-08-19T08:06:06;23.30;;;16.73;;
21810;SDS011;11067;48.788;9.208;2022-08-19T08:08:51;27.70;;;17.60;;
21810;SDS011;11067;48.788;9.208;2022-08-19T08:11:35;24.75;;;16.02;;
21810;SDS011;11067;48.788;9.208;2022-08-19T08:14:00;28.00;;;16.80;;
21810;SDS011;11067;48.788;9.208;2022-08-19T08:16:26;22.25;;;15.55;;
21810;SDS011;11067;48.788;9.208;2022-08-19T08:18:56;26.02;;;17.00;;
21810;SDS011;11067;48.788;9.208;2022-08-19T08:21:22;24.90;;;16.70;;
21810;SDS011;11067;48.788;9.208;2022-08-19T08:23:47;27.83;;;17.37;;
21810;SDS011;11067;48.788;9.208;2022-08-19T08:26:13;24.83;;;17.50;;
21810;SDS011;11067;48.788;9.208;2022-08-19T08:28:39;23.42;;;15.93;;
21810;SDS011;11067;48.788;9.208;2022-08-19T08:31:05;22.83;;;16.77;;
21810;SDS011;11067;48.788;9.208;2022-08-19T08:33:31;22.97;;;15.17;;
21810;SDS011;11067;48.788;9.208;2022-08-19T08:35:56;22.10;;;15.90;;
21810;SDS011;11067;48.788;9.208;2022-08-19T08:38:22;24.17;;;16.60;;
21810;SDS011;11067;48.788;9.208;2022-08-19T08:40:49;23.50;;;16.05;;
21810;SDS011;11067;48.788;9.208;2022-08-19T08:43:29;20.47;;;15.20;;
21810;SDS011;11067;48.788;9.208;2022-08-19T08:46:04;22.60;;;16.08;;
21810;SDS011;11067;48.788;9.208;2022-08-19T08:48:40;19.60;;;14.50;;
21810;SDS011;11067;48.788;9.208;2022-08-19T08:51:20;20.88;;;14.85;;
21810;SDS011;11067;48.788;9.208;2022-08-19T08:53:49;22.02;;;15.05;;
21810;SDS011;11067;48.788;9.208;2022-08-19T08:56:18;21.93;;;15.57;;
21810;SDS011;11067;48.788;9.208;2022-08-19T08:58:47;21.77;;;14.95;;
21810;SDS011;11067;48.788;9.208;2022-08-19T09:01:20;22.08;;;15.25;;
21810;SDS011;11067;48.788;9.208;2022-08-19T09:03:46;24.87;;;16.03;;
21810;SDS011;11067;48.788;9.208;2022-08-19T09:08:59;22.27;;;16.73;;
21810;SDS011;11067;48.788;9.208;2022-08-19T09:16:59;23.15;;;15.65;;
21810;SDS011;11067;48.788;9.208;2022-08-19T09:19:28;20.80;;;14.60;;
21810;SDS011;11067;48.788;9.208;2022-08-19T09:21:54;21.10;;;14.77;;
21810;SDS011;11067;48.788;9.208;2022-08-19T09:24:19;20.48;;;14.50;;
21810;SDS011;11067;48.788;9.208;2022-08-19T09:26:45;21.90;;;15.33;;
21810;SDS011;11067;48.788;9.208;2022-08-19T09:29:11;24.33;;;15.43;;
21810;SDS011;11067;48.788;9.208;2022-08-19T09:31:37;21.00;;;14.95;;
21810;SDS011;11067;48.788;9.208;2022-08-19T09:34:03;20.97;;;15.53;;
21810;SDS011;11067;48.788;9.208;2022-08-19T09:36:33;21.02;;;14.38;;
21810;SDS011;11067;48.788;9.208;2022-08-19T09:39:01;18.42;;;14.15;;
21810;SDS011;11067;48.788;9.208;2022-08-19T09:41:28;20.65;;;15.00;;
21810;SDS011;11067;48.788;9.208;2022-08-19T09:43:55;21.83;;;14.18;;
21810;SDS011;11067;48.788;9.208;2022-08-19T09:46:22;20.08;;;13.77;;
21810;SDS011;11067;48.788;9.208;2022-08-19T09:48:50;18.67;;;13.93;;
21810;SDS011;11067;48.788;9.208;2022-08-19T09:51:21;22.13;;;14.67;;
21810;SDS011;11067;48.788;9.208;2022-08-19T09:53:51;18.37;;;13.70;;
21810;SDS011;11067;48.788;9.208;2022-08-19T09:56:19;19.55;;;13.82;;
21810;SDS011;11067;48.788;9.208;2022-08-19T09:58:45;16.83;;;13.43;;
21810;SDS011;11067;48.788;9.208;2022-08-19T10:01:16;17.98;;;12.95;;
21810;SDS011;11067;48.788;9.208;2022-08-19T10:03:49;18.90;;;12.52;;
21810;SDS011;11067;48.788;9.208;2022-08-19T10:06:18;16.30;;;11.52;;
21810;SDS011;11067;48.788;9.208;2022-08-19T10:08:45;17.17;;;12.30;;
21810;SDS011;11067;48.788;9.208;2022-08-19T10:11:11;15.65;;;12.30;;
21810;SDS011;11067;48.788;9.208;2022-08-19T10:13:39;15.65;;;11.25;;
21810;SDS011;11067;48.788;9.208;2022-08-19T10:16:07;14.87;;;11.20;;
21810;SDS011;11067;48.788;9.208;2022-08-19T10:18:36;19.60;;;12.37;;
21810;SDS011;11067;48.788;9.208;2022-08-19T10:21:12;17.15;;;12.27;;
21810;SDS011;11067;48.788;9.208;2022-08-19T10:23:42;17.03;;;12.93;;
21810;SDS011;11067;48.788;9.208;2022-08-19T10:26:10;14.75;;;11.23;;
21810;SDS011;11067;48.788;9.208;2022-08-19T10:28:37;18.30;;;12.80;;
21810;SDS011;11067;48.788;9.208;2022-08-19T10:31:04;17.70;;;12.37;;
21810;SDS011;11067;48.788;9.208;2022-08-19T10:33:33;21.00;;;13.20;;
21810;SDS011;11067;48.788;9.208;2022-08-19T10:36:01;15.73;;;12.37;;
21810;SDS011;11067;48.788;9.208;2022-08-19T10:38:48;17.10;;;12.70;;
21810;SDS011;11067;48.788;9.208;2022-08-19T10:41:17;16.85;;;11.27;;
21810;SDS011;11067;48.788;9.208;2022-08-19T10:43:44;17.42;;;11.63;;
21810;SDS011;11067;48.788;9.208;2022-08-19T10:46:14;16.30;;;11.50;;
21810;SDS011;11067;48.788;9.208;2022-08-19T10:48:41;16.47;;;11.40;;
21810;SDS011;11067;48.788;9.208;2022-08-19T10:51:08;19.53;;;14.00;;
21810;SDS011;11067;48.788;9.208;2022-08-19T10:53:53;14.30;;;10.73;;
21810;SDS011;11067;48.788;9.208;2022-08-19T10:56:18;16.00;;;10.00;;
21810;SDS011;11067;48.788;9.208;2022-08-19T10:59:03;13.15;;;9.90;;
21810;SDS011;11067;48.788;9.208;2022-08-19T11:01:29;13.57;;;9.93;;
21810;SDS011;11067;48.788;9.208;2022-08-19T11:03:57;17.48;;;9.35;;
21810;SDS011;11067;48.788;9.208;2022-08-19T11:06:22;11.43;;;9.00;;
21810;SDS011;11067;48.788;9.208;2022-08-19T11:08:50;12.02;;;8.88;;
21810;SDS011;11067;48.788;9.208;2022-08-19T11:11:16;11.63;;;8.52;;
21810;SDS011;11067;48.788;9.208;2022-08-19T11:13:42;11.83;;;8.93;;
21810;SDS011;11067;48.788;9.208;2022-08-19T11:16:10;12.82;;;8.35;;
21810;SDS011;11067;48.788;9.208;2022-08-19T11:18:39;15.75;;;8.38;;
21810;SDS011;11067;48.788;9.208;2022-08-19T11:21:09;14.20;;;8.68;;
21810;SDS011;11067;48.788;9.208;2022-08-19T11:23:46;9.90;;;8.25;;
21810;SDS011;11067;48.788;9.208;2022-08-19T11:26:16;11.15;;;8.02;;
21810;SDS011;11067;48.788;9.208;2022-08-19T11:28:42;10.93;;;8.32;;
21810;SDS011;11067;48.788;9.208;2022-08-19T11:31:12;11.03;;;7.73;;
21810;SDS011;11067;48.788;9.208;2022-08-19T11:33:39;11.10;;;7.80;;
21810;SDS011;11067;48.788;9.208;2022-08-19T11:36:05;11.87;;;7.60;;
21810;SDS011;11067;48.788;9.208;2022-08-19T11:38:32;9.40;;;7.95;;
21810;SDS011;11067;48.788;9.208;2022-08-19T11:40:59;10.60;;;7.50;;
21810;SDS011;11067;48.788;9.208;2022-08-19T11:43:26;9.80;;;7.72;;
21810;SDS011;11067;48.788;9.208;2022-08-19T11:45:53;10.80;;;8.20;;
21810;SDS011;11067;48.788;9.208;2022-08-19T11:48:20;12.30;;;7.90;;
21810;SDS011;11067;48.788;9.208;2022-08-19T11:50:47;9.57;;;7.47;;
21810;SDS011;11067;48.788;9.208;2022-08-19T11:53:13;8.93;;;7.27;;
21810;SDS011;11067;48.788;9.208;2022-08-19T11:55:38;17.25;;;13.38;;
21810;SDS011;11067;48.788;9.208;2022-08-19T11:58:05;17.88;;;13.85;;
21810;SDS011;11067;48.788;9.208;2022-08-19T12:00:32;21.65;;;14.18;;
21810;SDS011;11067;48.788;9.208;2022-08-19T12:03:00;25.23;;;17.10;;
21810;SDS011;11067;48.788;9.208;2022-08-19T12:05:26;27.30;;;17.13;;
21810;SDS011;11067;48.788;9.208;2022-08-19T12:07:52;26.07;;;17.93;;
21810;SDS011;11067;48.788;9.208;2022-08-19T12:10:19;24.90;;;17.77;;
21810;SDS011;11067;48.788;9.208;2022-08-19T12:12:45;25.58;;;17.42;;
21810;SDS011;11067;48.788;9.208;2022-08-19T12:15:11;23.40;;;17.00;;
21810;SDS011;11067;48.788;9.208;2022-08-19T12:17:39;24.40;;;17.58;;
21810;SDS011;11067;48.788;9.208;2022-08-19T12:20:07;26.98;;;17.63;;
21810;SDS011;11067;48.788;9.208;2022-08-19T12:22:35;24.05;;;17.35;;
21810;SDS011;11067;48.788;9.208;2022-08-19T12:25:02;22.80;;;15.75;;
21810;SDS011;11067;48.788;9.208;2022-08-19T12:27:29;26.10;;;17.50;;
21810;SDS011;11067;48.788;9.208;2022-08-19T12:29:55;23.97;;;16.33;;
21810;SDS011;11067;48.788;9.208;2022-08-19T12:32:20;25.38;;;16.05;;
21810;SDS011;11067;48.788;9.208;2022-08-19T12:34:46;24.27;;;15.93;;
21810;SDS011;11067;48.788;9.208;2022-08-19T12:37:12;22.45;;;15.65;;
21810;SDS011;11067;48.788;9.208;2022-08-19T12:39:40;21.80;;;14.70;;
21810;SDS011;11067;48.788;9.208;2022-08-19T12:42:07;21.17;;;14.80;;
21810;SDS011;11067;48.788;9.208;2022-08-19T12:44:34;19.77;;;14.97;;
21810;SDS011;11067;48.788;9.208;2022-08-19T12:47:01;19.23;;;14.50;;
21810;SDS011;11067;48.788;9.208;2022-08-19T12:49:28;19.15;;;14.25;;
21810;SDS011;11067;48.788;9.208;2022-08-19T12:51:54;22.02;;;14.40;;
21810;SDS011;11067;48.788;9.208;2022-08-19T12:54:20;21.88;;;14.32;;
21810;SDS011;11067;48.788;9.208;2022-08-19T12:56:45;22.40;;;14.07;;
21810;SDS011;11067;48.788;9.208;2022-08-19T12:59:11;18.55;;;13.82;;
21810;SDS011;11067;48.788;9.208;2022-08-19T13:01:37;20.73;;;15.07;;
21810;SDS011;11067;48.788;9.208;2022-08-19T13:04:03;20.25;;;15.48;;
21810;SDS011;11067;48.788;9.208;2022-08-19T13:06:28;22.50;;;15.65;;
21810;SDS011;11067;48.788;9.208;2022-08-19T13:08:54;23.33;;;16.25;;
21810;SDS011;11067;48.788;9.208;2022-08-19T13:11:20;21.07;;;15.97;;
21810;SDS011;11067;48.788;9.208;2022-08-19T13:13:49;23.45;;;17.70;;
21810;SDS011;11067;48.788;9.208;2022-08-19T13:16:16;27.90;;;16.85;;
21810;SDS011;11067;48.788;9.208;2022-08-19T13:18:43;26.50;;;18.30;;
21810;SDS011;11067;48.788;9.208;2022-08-19T13:21:12;25.60;;;18.65;;
21810;SDS011;11067;48.788;9.208;2022-08-19T13:23:38;28.38;;;19.67;;
21810;SDS011;11067;48.788;9.208;2022-08-19T13:26:05;31.07;;;20.23;;
21810;SDS011;11067;48.788;9.208;2022-08-19T13:28:33;30.88;;;20.52;;
21810;SDS011;11067;48.788;9.208;2022-08-19T13:31:18;31.50;;;21.13;;
21810;SDS011;11067;48.788;9.208;2022-08-19T13:34:03;32.72;;;21.88;;
21810;SDS011;11067;48.788;9.208;2022-08-19T13:36:30;30.05;;;20.63;;
21810;SDS011;11067;48.788;9.208;2022-08-19T13:38:56;31.42;;;21.30;;
21810;SDS011;11067;48.788;9.208;2022-08-19T13:41:22;34.05;;;22.20;;
21810;SDS011;11067;48.788;9.208;2022-08-19T13:43:48;31.52;;;22.33;;
21810;SDS011;11067;48.788;9.208;2022-08-19T13:46:14;36.77;;;23.27;;
21810;SDS011;11067;48.788;9.208;2022-08-19T13:48:40;37.40;;;23.67;;
21810;SDS011;11067;48.788;9.208;2022-08-19T13:51:06;37.30;;;24.15;;
21810;SDS011;11067;48.788;9.208;2022-08-19T13:53:35;34.33;;;23.23;;
21810;SDS011;11067;48.788;9.208;2022-08-19T13:56:07;37.28;;;23.25;;
21810;SDS011;11067;48.788;9.208;2022-08-19T13:58:34;32.13;;;21.90;;
21810;SDS011;11067;48.788;9.208;2022-08-19T14:00:59;31.27;;;21.13;;
21810;SDS011;11067;48.788;9.208;2022-08-19T14:03:25;28.58;;;19.98;;
21810;SDS011;11067;48.788;9.208;2022-08-19T14:05:52;29.55;;;21.05;;
21810;SDS011;11067;48.788;9.208;2022-08-19T14:08:18;32.10;;;22.10;;
21810;SDS011;11067;48.788;9.208;2022-08-19T14:10:44;32.70;;;22.23;;
21810;SDS011;11067;48.788;9.208;2022-08-19T14:13:12;32.97;;;22.17;;
21810;SDS011;11067;48.788;9.208;2022-08-19T14:15:39;32.97;;;22.15;;
21810;SDS011;11067;48.788;9.208;2022-08-19T14:18:05;30.33;;;20.93;;
21810;SDS011;11067;48.788;9.208;2022-08-19T14:20:33;30.88;;;22.10;;
21810;SDS011;11067;48.788;9.208;2022-08-19T14:23:01;31.60;;;21.70;;
21810;SDS011;11067;48.788;9.208;2022-08-19T14:25:28;29.77;;;21.27;;
21810;SDS011;11067;48.788;9.208;2022-08-19T14:27:55;31.23;;;21.33;;
21810;SDS011;11067;48.788;9.208;2022-08-19T14:30:24;28.30;;;21.17;;
21810;SDS011;11067;48.788;9.208;2022-08-19T14:32:52;31.27;;;20.23;;
21810;SDS011;11067;48.788;9.208;2022-08-19T14:35:19;31.90;;;20.60;;
21810;SDS011;11067;48.788;9.208;2022-08-19T14:37:46;29.08;;;20.27;;
21810;SDS011;11067;48.788;9.208;2022-08-19T14:40:17;29.88;;;20.30;;